sensor_id;sensor_type;location;lat;lon;timestamp;pressure;altitude;pressure_sealevel;temperature;humidity
71621;BME280;59471;42.254;23.102;2023-02-11T00:00:07;97582.91;;;-4.74;69.67
71621;BME280;59471;42.254;23.102;2023-02-11T00:02:33;97579.38;;;-4.70;69.97
71621;BME280;59471;42.254;23.102;2023-02-11T00:04:59;97584.47;;;-4.70;70.20
71621;BME280;59471;42.254;23.102;2023-02-11T00:07:28;97591.56;;;-5.13;70.76
71621;BME280;59471;42.254;23.102;2023-02-11T00:09:54;97588.88;;;-5.08;70.61
71621;BME280;59471;42.254;23.102;2023-02-11T00:12:20;97597.50;;;-4.47;70.59
71621;BME280;59471;42.254;23.102;2023-02-11T00:14:46;97591.69;;;-4.22;69.83
71621;BME280;59471;42.254;23.102;2023-02-11T00:17:12;97595.13;;;-4.23;68.59
71621;BME280;59471;42.254;23.102;2023-02-11T00:19:38;97587.84;;;-4.68;68.76
71621;BME280;59471;42.254;23.102;2023-02-11T00:22:04;97602.31;;;-5.00;69.85
71621;BME280;59471;42.254;23.102;2023-02-11T00:24:29;97602.06;;;-4.91;70.46
71621;BME280;59471;42.254;23.102;2023-02-11T00:26:55;97599.75;;;-5.34;71.58
71621;BME280;59471;42.254;23.102;2023-02-11T00:29:20;97588.16;;;-5.49;71.47
71621;BME280;59471;42.254;23.102;2023-02-11T00:31:46;97586.13;;;-5.70;72.24
71621;BME280;59471;42.254;23.102;2023-02-11T00:34:12;97593.94;;;-6.15;74.01
71621;BME280;59471;42.254;23.102;2023-02-11T00:36:38;97577.28;;;-5.93;73.41
71621;BME280;59471;42.254;23.102;2023-02-11T00:39:03;97584.28;;;-6.01;73.37
71621;BME280;59471;42.254;23.102;2023-02-11T00:41:29;97575.50;;;-5.89;73.17
71621;BME280;59471;42.254;23.102;2023-02-11T00:43:55;97577.53;;;-6.02;73.38
71621;BME280;59471;42.254;23.102;2023-02-11T00:46:21;97577.56;;;-5.68;72.84
71621;BME280;59471;42.254;23.102;2023-02-11T00:48:47;97576.56;;;-5.62;72.56
71621;BME280;59471;42.254;23.102;2023-02-11T00:51:13;97580.34;;;-5.41;72.26
71621;BME280;59471;42.254;23.102;2023-02-11T00:53:39;97580.50;;;-5.47;72.44
71621;BME280;59471;42.254;23.102;2023-02-11T00:56:05;97581.72;;;-5.64;72.39
71621;BME280;59471;42.254;23.102;2023-02-11T00:58:31;97576.66;;;-5.65;73.04
71621;BME280;59471;42.254;23.102;2023-02-11T01:00:56;97582.66;;;-5.68;72.72
71621;BME280;59471;42.254;23.102;2023-02-11T01:03:22;97577.19;;;-5.90;73.71
71621;BME280;59471;42.254;23.102;2023-02-11T01:05:48;97580.44;;;-5.82;73.97
71621;BME280;59471;42.254;23.102;2023-02-11T01:08:13;97578.81;;;-5.86;74.44
71621;BME280;59471;42.254;23.102;2023-02-11T01:10:39;97580.63;;;-5.91;74.01
71621;BME280;59471;42.254;23.102;2023-02-11T01:13:05;97568.09;;;-5.63;73.52
71621;BME280;59471;42.254;23.102;2023-02-11T01:15:31;97575.34;;;-5.46;73.06
71621;BME280;59471;42.254;23.102;2023-02-11T01:17:57;97574.63;;;-5.51;73.46
71621;BME280;59471;42.254;23.102;2023-02-11T01:20:25;97574.56;;;-5.48;73.61
71621;BME280;59471;42.254;23.102;2023-02-11T01:22:51;97572.56;;;-5.72;73.90
71621;BME280;59471;42.254;23.102;2023-02-11T01:25:17;97563.88;;;-5.65;73.30
71621;BME280;59471;42.254;23.102;2023-02-11T01:27:43;97562.97;;;-5.61;72.93
71621;BME280;59471;42.254;23.102;2023-02-11T01:30:11;97560.31;;;-5.58;73.02
71621;BME280;59471;42.254;23.102;2023-02-11T01:32:39;97561.25;;;-5.61;73.53
71621;BME280;59471;42.254;23.102;2023-02-11T01:35:05;97555.31;;;-5.63;73.70
71621;BME280;59471;42.254;23.102;2023-02-11T01:37:32;97559.44;;;-5.57;73.14
71621;BME280;59471;42.254;23.102;2023-02-11T01:39:58;97562.28;;;-5.33;73.09
71621;BME280;59471;42.254;23.102;2023-02-11T01:42:25;97556.78;;;-5.18;72.22
71621;BME280;59471;42.254;23.102;2023-02-11T01:44:53;97569.06;;;-5.32;72.20
71621;BME280;59471;42.254;23.102;2023-02-11T01:47:20;97569.25;;;-5.76;73.45
71621;BME280;59471;42.254;23.102;2023-02-11T01:49:51;97563.94;;;-5.67;73.09
71621;BME280;59471;42.254;23.102;2023-02-11T01:52:29;97556.59;;;-5.80;72.81
71621;BME280;59471;42.254;23.102;2023-02-11T01:55:03;97564.97;;;-5.75;73.24
71621;BME280;59471;42.254;23.102;2023-02-11T01:57:53;97568.16;;;-6.01;73.60
71621;BME280;59471;42.254;23.102;2023-02-11T02:00:29;97560.16;;;-6.25;74.87
71621;BME280;59471;42.254;23.102;2023-02-11T02:10:52;97555.94;;;-6.27;73.97
71621;BME280;59471;42.254;23.102;2023-02-11T02:13:22;97556.72;;;-6.64;76.14
71621;BME280;59471;42.254;23.102;2023-02-11T02:15:53;97546.69;;;-6.73;76.56
71621;BME280;59471;42.254;23.102;2023-02-11T02:38:57;97549.25;;;-7.20;77.47
71621;BME280;59471;42.254;23.102;2023-02-11T02:41:33;97548.66;;;-6.88;77.22
71621;BME280;59471;42.254;23.102;2023-02-11T02:44:00;97552.63;;;-6.73;76.71
71621;BME280;59471;42.254;23.102;2023-02-11T02:46:28;97553.41;;;-6.69;76.07
71621;BME280;59471;42.254;23.102;2023-02-11T02:48:56;97556.94;;;-6.33;75.25
71621;BME280;59471;42.254;23.102;2023-02-11T03:03:50;97565.09;;;-6.59;74.55
71621;BME280;59471;42.254;23.102;2023-02-11T03:06:29;97561.63;;;-6.55;74.63
71621;BME280;59471;42.254;23.102;2023-02-11T03:09:04;97564.72;;;-6.41;74.14
71621;BME280;59471;42.254;23.102;2023-02-11T03:11:34;97567.03;;;-6.70;74.42
71621;BME280;59471;42.254;23.102;2023-02-11T03:14:05;97572.78;;;-7.07;75.46
71621;BME280;59471;42.254;23.102;2023-02-11T03:16:34;97561.09;;;-7.17;76.44
71621;BME280;59471;42.254;23.102;2023-02-11T03:19:19;97568.41;;;-6.99;76.16
71621;BME280;59471;42.254;23.102;2023-02-11T03:21:47;97569.69;;;-6.78;75.48
71621;BME280;59471;42.254;23.102;2023-02-11T03:24:20;97572.41;;;-6.86;74.75
71621;BME280;59471;42.254;23.102;2023-02-11T03:26:55;97561.22;;;-6.77;75.15
71621;BME280;59471;42.254;23.102;2023-02-11T03:29:49;97556.88;;;-6.73;75.37
71621;BME280;59471;42.254;23.102;2023-02-11T03:35:28;97564.72;;;-7.31;77.22
71621;BME280;59471;42.254;23.102;2023-02-11T03:38:03;97570.66;;;-7.30;76.85
71621;BME280;59471;42.254;23.102;2023-02-11T03:40:34;97570.97;;;-6.99;75.89
71621;BME280;59471;42.254;23.102;2023-02-11T03:43:10;97573.06;;;-7.23;76.11
71621;BME280;59471;42.254;23.102;2023-02-11T03:45:41;97577.16;;;-7.14;76.17
71621;BME280;59471;42.254;23.102;2023-02-11T03:48:13;97576.94;;;-7.51;77.50
71621;BME280;59471;42.254;23.102;2023-02-11T03:50:42;97576.88;;;-7.48;77.79
71621;BME280;59471;42.254;23.102;2023-02-11T03:53:10;97576.31;;;-7.14;77.43
71621;BME280;59471;42.254;23.102;2023-02-11T03:55:38;97571.38;;;-7.24;76.92
71621;BME280;59471;42.254;23.102;2023-02-11T03:58:05;97567.81;;;-7.13;76.32
71621;BME280;59471;42.254;23.102;2023-02-11T04:00:34;97568.59;;;-7.10;75.91
71621;BME280;59471;42.254;23.102;2023-02-11T04:03:02;97578.63;;;-7.50;78.00
71621;BME280;59471;42.254;23.102;2023-02-11T04:05:29;97557.94;;;-7.32;76.94
71621;BME280;59471;42.254;23.102;2023-02-11T04:07:54;97562.06;;;-7.25;76.50
71621;BME280;59471;42.254;23.102;2023-02-11T04:10:20;97562.13;;;-7.29;77.33
71621;BME280;59471;42.254;23.102;2023-02-11T04:12:45;97566.88;;;-7.08;76.72
71621;BME280;59471;42.254;23.102;2023-02-11T04:15:11;97557.34;;;-6.98;74.71
71621;BME280;59471;42.254;23.102;2023-02-11T04:17:38;97545.63;;;-6.62;74.65
71621;BME280;59471;42.254;23.102;2023-02-11T04:20:04;97540.97;;;-6.85;74.84
71621;BME280;59471;42.254;23.102;2023-02-11T04:22:30;97547.53;;;-6.73;75.10
71621;BME280;59471;42.254;23.102;2023-02-11T04:24:56;97555.63;;;-6.96;74.95
71621;BME280;59471;42.254;23.102;2023-02-11T04:27:22;97545.38;;;-6.93;75.52
71621;BME280;59471;42.254;23.102;2023-02-11T04:29:47;97550.75;;;-7.08;75.27
71621;BME280;59471;42.254;23.102;2023-02-11T04:32:13;97547.31;;;-7.07;75.38
71621;BME280;59471;42.254;23.102;2023-02-11T04:34:39;97534.38;;;-6.95;75.50
71621;BME280;59471;42.254;23.102;2023-02-11T04:37:04;97544.44;;;-6.89;75.12
71621;BME280;59471;42.254;23.102;2023-02-11T04:39:30;97549.03;;;-7.08;75.61
71621;BME280;59471;42.254;23.102;2023-02-11T04:41:56;97551.41;;;-6.98;75.79
71621;BME280;59471;42.254;23.102;2023-02-11T04:44:22;97552.19;;;-6.95;76.10
71621;BME280;59471;42.254;23.102;2023-02-11T04:46:47;97550.19;;;-6.78;75.49
71621;BME280;59471;42.254;23.102;2023-02-11T04:49:14;97549.84;;;-6.62;74.56
71621;BME280;59471;42.254;23.102;2023-02-11T04:51:41;97534.31;;;-6.50;74.45
71621;BME280;59471;42.254;23.102;2023-02-11T04:54:07;97551.63;;;-6.66;73.72
71621;BME280;59471;42.254;23.102;2023-02-11T04:56:32;97550.53;;;-6.96;74.81
71621;BME280;59471;42.254;23.102;2023-02-11T04:58:58;97554.81;;;-6.98;76.24
71621;BME280;59471;42.254;23.102;2023-02-11T05:01:24;97540.97;;;-6.85;75.01
71621;BME280;59471;42.254;23.102;2023-02-11T05:03:49;97541.72;;;-6.80;74.39
71621;BME280;59471;42.254;23.102;2023-02-11T05:06:15;97541.00;;;-6.86;75.16
71621;BME280;59471;42.254;23.102;2023-02-11T05:08:41;97546.13;;;-6.88;75.24
71621;BME280;59471;42.254;23.102;2023-02-11T05:11:14;97536.63;;;-6.80;75.51
71621;BME280;59471;42.254;23.102;2023-02-11T05:13:42;97540.22;;;-6.90;75.72
71621;BME280;59471;42.254;23.102;2023-02-11T05:16:08;97540.88;;;-6.80;74.80
71621;BME280;59471;42.254;23.102;2023-02-11T05:18:36;97544.94;;;-6.71;74.67
71621;BME280;59471;42.254;23.102;2023-02-11T05:21:10;97548.31;;;-6.69;74.05
71621;BME280;59471;42.254;23.102;2023-02-11T05:23:39;97555.28;;;-6.78;74.47
71621;BME280;59471;42.254;23.102;2023-02-11T05:26:06;97557.84;;;-6.79;74.78
71621;BME280;59471;42.254;23.102;2023-02-11T05:28:32;97560.44;;;-6.81;76.94
71621;BME280;59471;42.254;23.102;2023-02-11T05:30:58;97566.19;;;-7.17;76.89
71621;BME280;59471;42.254;23.102;2023-02-11T05:33:24;97555.06;;;-7.12;76.56
71621;BME280;59471;42.254;23.102;2023-02-11T05:35:50;97560.66;;;-6.94;76.18
71621;BME280;59471;42.254;23.102;2023-02-11T05:38:15;97557.84;;;-7.26;76.40
71621;BME280;59471;42.254;23.102;2023-02-11T05:40:41;97559.84;;;-7.43;76.96
71621;BME280;59471;42.254;23.102;2023-02-11T05:43:06;97561.66;;;-7.51;77.35
71621;BME280;59471;42.254;23.102;2023-02-11T05:45:32;97564.94;;;-7.43;77.48
71621;BME280;59471;42.254;23.102;2023-02-11T05:47:59;97562.75;;;-7.15;76.62
71621;BME280;59471;42.254;23.102;2023-02-11T05:50:25;97557.88;;;-7.29;76.80
71621;BME280;59471;42.254;23.102;2023-02-11T05:52:50;97563.31;;;-7.01;76.39
71621;BME280;59471;42.254;23.102;2023-02-11T05:55:16;97562.56;;;-7.04;76.74
71621;BME280;59471;42.254;23.102;2023-02-11T05:57:42;97558.44;;;-6.65;76.54
71621;BME280;59471;42.254;23.102;2023-02-11T06:00:08;97556.72;;;-6.64;75.09
71621;BME280;59471;42.254;23.102;2023-02-11T06:02:34;97558.38;;;-6.63;74.51
71621;BME280;59471;42.254;23.102;2023-02-11T06:04:59;97571.66;;;-6.46;73.65
71621;BME280;59471;42.254;23.102;2023-02-11T06:07:25;97558.38;;;-6.63;74.40
71621;BME280;59471;42.254;23.102;2023-02-11T06:09:50;97565.78;;;-6.51;74.20
71621;BME280;59471;42.254;23.102;2023-02-11T06:12:16;97574.22;;;-6.47;74.69
71621;BME280;59471;42.254;23.102;2023-02-11T06:14:41;97569.59;;;-6.72;74.44
71621;BME280;59471;42.254;23.102;2023-02-11T06:17:07;97568.44;;;-6.56;73.71
71621;BME280;59471;42.254;23.102;2023-02-11T06:19:32;97571.88;;;-6.58;74.04
71621;BME280;59471;42.254;23.102;2023-02-11T06:21:58;97582.47;;;-6.80;74.62
71621;BME280;59471;42.254;23.102;2023-02-11T06:24:24;97588.00;;;-6.58;73.98
71621;BME280;59471;42.254;23.102;2023-02-11T06:26:49;97584.16;;;-6.79;74.05
71621;BME280;59471;42.254;23.102;2023-02-11T06:29:15;97584.09;;;-6.76;74.85
71621;BME280;59471;42.254;23.102;2023-02-11T06:31:40;97584.44;;;-6.94;74.56
71621;BME280;59471;42.254;23.102;2023-02-11T06:34:09;97586.41;;;-7.08;76.02
71621;BME280;59471;42.254;23.102;2023-02-11T06:36:35;97578.50;;;-6.94;76.16
71621;BME280;59471;42.254;23.102;2023-02-11T06:39:02;97588.31;;;-6.73;76.02
71621;BME280;59471;42.254;23.102;2023-02-11T06:41:28;97578.66;;;-6.57;74.79
71621;BME280;59471;42.254;23.102;2023-02-11T06:43:53;97581.03;;;-6.48;74.92
71621;BME280;59471;42.254;23.102;2023-02-11T06:46:19;97589.84;;;-6.22;74.26
71621;BME280;59471;42.254;23.102;2023-02-11T06:48:44;97586.53;;;-6.27;74.80
71621;BME280;59471;42.254;23.102;2023-02-11T06:51:11;97587.91;;;-6.11;73.76
71621;BME280;59471;42.254;23.102;2023-02-11T06:53:39;97583.06;;;-6.23;74.20
71621;BME280;59471;42.254;23.102;2023-02-11T06:56:10;97580.53;;;-6.23;75.25
71621;BME280;59471;42.254;23.102;2023-02-11T06:58:38;97581.25;;;-6.18;75.32
71621;BME280;59471;42.254;23.102;2023-02-11T07:01:09;97572.75;;;-6.17;75.15
71621;BME280;59471;42.254;23.102;2023-02-11T07:03:37;97573.31;;;-6.04;74.73
71621;BME280;59471;42.254;23.102;2023-02-11T07:06:06;97579.06;;;-5.95;74.36
71621;BME280;59471;42.254;23.102;2023-02-11T07:08:33;97574.56;;;-5.87;74.06
71621;BME280;59471;42.254;23.102;2023-02-11T07:10:59;97575.88;;;-5.69;72.97
71621;BME280;59471;42.254;23.102;2023-02-11T07:13:25;97565.41;;;-5.58;73.66
71621;BME280;59471;42.254;23.102;2023-02-11T07:15:50;97552.22;;;-5.40;72.89
71621;BME280;59471;42.254;23.102;2023-02-11T07:18:16;97573.38;;;-5.36;72.12
71621;BME280;59471;42.254;23.102;2023-02-11T07:20:41;97572.34;;;-5.27;71.65
71621;BME280;59471;42.254;23.102;2023-02-11T07:23:07;97578.66;;;-5.08;71.38
71621;BME280;59471;42.254;23.102;2023-02-11T07:25:35;97568.19;;;-4.99;71.89
71621;BME280;59471;42.254;23.102;2023-02-11T07:28:00;97567.66;;;-4.77;71.20
71621;BME280;59471;42.254;23.102;2023-02-11T07:30:27;97569.13;;;-4.69;70.64
71621;BME280;59471;42.254;23.102;2023-02-11T07:32:52;97569.16;;;-4.70;69.95
71621;BME280;59471;42.254;23.102;2023-02-11T07:35:18;97573.34;;;-4.68;70.51
71621;BME280;59471;42.254;23.102;2023-02-11T07:37:43;97566.31;;;-4.59;69.79
71621;BME280;59471;42.254;23.102;2023-02-11T07:40:09;97575.47;;;-4.51;70.16
71621;BME280;59471;42.254;23.102;2023-02-11T07:42:35;97574.44;;;-4.45;68.90
71621;BME280;59471;42.254;23.102;2023-02-11T07:45:01;97568.31;;;-4.39;68.71
71621;BME280;59471;42.254;23.102;2023-02-11T07:47:27;97579.16;;;-4.02;66.40
71621;BME280;59471;42.254;23.102;2023-02-11T07:49:52;97562.22;;;-4.06;67.38
71621;BME280;59471;42.254;23.102;2023-02-11T07:52:18;97558.97;;;-3.83;69.33
71621;BME280;59471;42.254;23.102;2023-02-11T07:54:44;97571.75;;;-3.83;66.75
71621;BME280;59471;42.254;23.102;2023-02-11T07:57:09;97569.66;;;-3.70;66.21
71621;BME280;59471;42.254;23.102;2023-02-11T07:59:35;97559.53;;;-3.73;65.62
71621;BME280;59471;42.254;23.102;2023-02-11T08:02:01;97559.72;;;-3.79;67.31
71621;BME280;59471;42.254;23.102;2023-02-11T08:04:26;97558.94;;;-3.55;64.28
71621;BME280;59471;42.254;23.102;2023-02-11T08:06:52;97556.28;;;-3.52;63.64
71621;BME280;59471;42.254;23.102;2023-02-11T08:09:21;97541.47;;;-3.42;63.08
71621;BME280;59471;42.254;23.102;2023-02-11T08:11:47;97545.34;;;-3.30;63.34
71621;BME280;59471;42.254;23.102;2023-02-11T08:14:12;97535.38;;;-3.13;62.77
71621;BME280;59471;42.254;23.102;2023-02-11T08:16:38;97533.09;;;-2.95;63.24
71621;BME280;59471;42.254;23.102;2023-02-11T08:19:10;97523.44;;;-2.89;62.72
71621;BME280;59471;42.254;23.102;2023-02-11T08:21:38;97519.72;;;-2.80;63.89
71621;BME280;59471;42.254;23.102;2023-02-11T08:24:04;97522.09;;;-2.74;61.88
71621;BME280;59471;42.254;23.102;2023-02-11T08:26:32;97515.28;;;-2.51;59.97
71621;BME280;59471;42.254;23.102;2023-02-11T08:29:04;97509.97;;;-2.47;60.95
71621;BME280;59471;42.254;23.102;2023-02-11T08:31:37;97518.00;;;-2.33;58.67
71621;BME280;59471;42.254;23.102;2023-02-11T08:34:05;97517.53;;;-2.42;59.98
71621;BME280;59471;42.254;23.102;2023-02-11T08:36:33;97510.47;;;-2.37;60.50
71621;BME280;59471;42.254;23.102;2023-02-11T08:39:04;97519.72;;;-2.10;59.48
71621;BME280;59471;42.254;23.102;2023-02-11T08:41:33;97515.06;;;-2.00;59.47
71621;BME280;59471;42.254;23.102;2023-02-11T08:43:59;97511.22;;;-1.90;57.89
71621;BME280;59471;42.254;23.102;2023-02-11T08:46:26;97514.22;;;-1.78;57.38
71621;BME280;59471;42.254;23.102;2023-02-11T08:48:52;97511.81;;;-1.83;56.33
71621;BME280;59471;42.254;23.102;2023-02-11T08:51:21;97516.00;;;-1.80;58.34
71621;BME280;59471;42.254;23.102;2023-02-11T08:53:49;97516.31;;;-1.66;58.44
71621;BME280;59471;42.254;23.102;2023-02-11T08:56:16;97510.94;;;-1.60;58.27
71621;BME280;59471;42.254;23.102;2023-02-11T08:58:43;97506.75;;;-1.42;56.84
71621;BME280;59471;42.254;23.102;2023-02-11T09:01:17;97511.06;;;-1.43;57.09
71621;BME280;59471;42.254;23.102;2023-02-11T09:03:45;97509.88;;;-1.34;57.74
71621;BME280;59471;42.254;23.102;2023-02-11T09:06:12;97507.69;;;-1.23;56.54
71621;BME280;59471;42.254;23.102;2023-02-11T09:08:40;97504.22;;;-1.22;55.75
71621;BME280;59471;42.254;23.102;2023-02-11T09:11:08;97499.91;;;-1.21;55.49
71621;BME280;59471;42.254;23.102;2023-02-11T09:13:34;97504.47;;;-1.07;55.87
71621;BME280;59471;42.254;23.102;2023-02-11T09:16:03;97503.19;;;-0.97;56.41
71621;BME280;59471;42.254;23.102;2023-02-11T09:18:30;97497.41;;;-0.82;54.15
71621;BME280;59471;42.254;23.102;2023-02-11T09:21:07;97496.66;;;-0.85;55.57
71621;BME280;59471;42.254;23.102;2023-02-11T09:23:34;97485.44;;;-0.64;53.84
71621;BME280;59471;42.254;23.102;2023-02-11T09:26:14;97492.84;;;-0.56;53.98
71621;BME280;59471;42.254;23.102;2023-02-11T09:28:41;97484.22;;;-0.55;53.81
71621;BME280;59471;42.254;23.102;2023-02-11T09:31:09;97476.84;;;-0.44;52.46
71621;BME280;59471;42.254;23.102;2023-02-11T09:33:38;97479.91;;;-0.36;52.07
71621;BME280;59471;42.254;23.102;2023-02-11T09:36:06;97464.72;;;-0.42;53.65
71621;BME280;59471;42.254;23.102;2023-02-11T09:38:33;97460.41;;;-0.22;52.29
71621;BME280;59471;42.254;23.102;2023-02-11T09:40:59;97451.78;;;-0.21;51.28
71621;BME280;59471;42.254;23.102;2023-02-11T09:43:35;97451.88;;;0.13;51.12
71621;BME280;59471;42.254;23.102;2023-02-11T09:46:08;97449.75;;;0.21;51.82
71621;BME280;59471;42.254;23.102;2023-02-11T09:48:40;97454.31;;;0.34;50.47
71621;BME280;59471;42.254;23.102;2023-02-11T09:51:18;97441.56;;;0.31;50.24
71621;BME280;59471;42.254;23.102;2023-02-11T09:53:50;97436.72;;;0.42;50.45
71621;BME280;59471;42.254;23.102;2023-02-11T09:56:18;97428.56;;;0.51;49.82
71621;BME280;59471;42.254;23.102;2023-02-11T09:58:44;97434.81;;;0.80;49.45
71621;BME280;59471;42.254;23.102;2023-02-11T10:01:38;97429.41;;;0.85;49.23
71621;BME280;59471;42.254;23.102;2023-02-11T10:15:43;97398.75;;;1.29;47.67
71621;BME280;59471;42.254;23.102;2023-02-11T10:21:31;97379.91;;;1.59;47.32
71621;BME280;59471;42.254;23.102;2023-02-11T10:24:12;97377.75;;;1.83;45.38
71621;BME280;59471;42.254;23.102;2023-02-11T10:26:39;97377.38;;;1.89;44.21
71621;BME280;59471;42.254;23.102;2023-02-11T10:29:47;97356.88;;;2.02;44.43
71621;BME280;59471;42.254;23.102;2023-02-11T10:32:36;97361.22;;;1.85;43.89
71621;BME280;59471;42.254;23.102;2023-02-11T10:35:13;97346.19;;;1.92;44.03
71621;BME280;59471;42.254;23.102;2023-02-11T10:37:42;97340.50;;;2.01;44.45
71621;BME280;59471;42.254;23.102;2023-02-11T10:40:16;97340.44;;;2.17;45.12
71621;BME280;59471;42.254;23.102;2023-02-11T10:42:49;97327.13;;;2.39;45.62
71621;BME280;59471;42.254;23.102;2023-02-11T10:45:32;97326.03;;;2.43;44.21
71621;BME280;59471;42.254;23.102;2023-02-11T10:53:35;97313.19;;;2.85;39.34
71621;BME280;59471;42.254;23.102;2023-02-11T10:56:01;97303.31;;;2.77;39.27
71621;BME280;59471;42.254;23.102;2023-02-11T10:58:33;97295.53;;;2.77;39.53
71621;BME280;59471;42.254;23.102;2023-02-11T11:01:06;97293.03;;;2.90;38.26
71621;BME280;59471;42.254;23.102;2023-02-11T11:03:36;97283.72;;;2.87;38.46
71621;BME280;59471;42.254;23.102;2023-02-11T11:06:06;97276.50;;;2.92;40.93
71621;BME280;59471;42.254;23.102;2023-02-11T11:08:42;97272.41;;;3.02;41.17
71621;BME280;59471;42.254;23.102;2023-02-11T11:11:21;97270.44;;;3.20;41.60
71621;BME280;59471;42.254;23.102;2023-02-11T11:16:27;97257.41;;;3.22;39.97
71621;BME280;59471;42.254;23.102;2023-02-11T11:21:39;97240.94;;;3.50;39.05
71621;BME280;59471;42.254;23.102;2023-02-11T11:24:14;97234.09;;;3.62;39.52
71621;BME280;59471;42.254;23.102;2023-02-11T11:27:03;97242.63;;;3.64;38.17
71621;BME280;59471;42.254;23.102;2023-02-11T11:32:11;97238.28;;;3.77;36.91
71621;BME280;59471;42.254;23.102;2023-02-11T11:34:41;97224.81;;;3.72;38.64
71621;BME280;59471;42.254;23.102;2023-02-11T11:37:22;97218.59;;;3.87;39.04
71621;BME280;59471;42.254;23.102;2023-02-11T11:42:40;97208.03;;;4.03;34.88
71621;BME280;59471;42.254;23.102;2023-02-11T11:53:13;97207.81;;;4.32;33.90
71621;BME280;59471;42.254;23.102;2023-02-11T11:55:46;97198.72;;;4.39;32.76
71621;BME280;59471;42.254;23.102;2023-02-11T11:58:18;97188.94;;;4.43;32.66
71621;BME280;59471;42.254;23.102;2023-02-11T12:09:37;97176.78;;;4.93;34.11
71621;BME280;59471;42.254;23.102;2023-02-11T12:18:14;97165.09;;;5.11;31.38
71621;BME280;59471;42.254;23.102;2023-02-11T12:43:24;97147.97;;;5.44;30.65
71621;BME280;59471;42.254;23.102;2023-02-11T12:46:35;97144.25;;;5.59;32.48
71621;BME280;59471;42.254;23.102;2023-02-11T12:57:23;97140.03;;;5.80;31.21
71621;BME280;59471;42.254;23.102;2023-02-11T13:02:42;97134.53;;;5.50;29.36
71621;BME280;59471;42.254;23.102;2023-02-11T13:05:26;97136.78;;;5.19;29.93
71621;BME280;59471;42.254;23.102;2023-02-11T13:08:11;97134.06;;;5.56;28.66
71621;BME280;59471;42.254;23.102;2023-02-11T13:10:41;97121.19;;;5.54;27.27
71621;BME280;59471;42.254;23.102;2023-02-11T13:15:58;97110.78;;;5.54;27.69
71621;BME280;59471;42.254;23.102;2023-02-11T13:21:18;97112.59;;;5.76;27.52
71621;BME280;59471;42.254;23.102;2023-02-11T13:24:08;97109.88;;;5.89;29.33
71621;BME280;59471;42.254;23.102;2023-02-11T13:30:12;97105.78;;;6.20;29.77
71621;BME280;59471;42.254;23.102;2023-02-11T13:38:19;97089.72;;;6.38;28.87
71621;BME280;59471;42.254;23.102;2023-02-11T13:43:42;97080.97;;;6.28;24.70
71621;BME280;59471;42.254;23.102;2023-02-11T13:46:12;97080.25;;;6.25;27.01
71621;BME280;59471;42.254;23.102;2023-02-11T13:48:48;97084.97;;;6.32;27.89
71621;BME280;59471;42.254;23.102;2023-02-11T13:51:31;97078.81;;;6.44;25.76
71621;BME280;59471;42.254;23.102;2023-02-11T13:54:00;97076.69;;;6.38;26.26
71621;BME280;59471;42.254;23.102;2023-02-11T13:56:35;97074.53;;;6.54;24.50
71621;BME280;59471;42.254;23.102;2023-02-11T14:02:20;97075.97;;;6.36;27.98
71621;BME280;59471;42.254;23.102;2023-02-11T14:08:13;97069.13;;;6.35;26.21
71621;BME280;59471;42.254;23.102;2023-02-11T14:14:23;97059.66;;;6.45;27.81
71621;BME280;59471;42.254;23.102;2023-02-11T14:19:46;97063.50;;;6.62;28.02
71621;BME280;59471;42.254;23.102;2023-02-11T14:22:13;97057.78;;;6.79;26.65
71621;BME280;59471;42.254;23.102;2023-02-11T14:25:01;97052.00;;;6.76;27.44
71621;BME280;59471;42.254;23.102;2023-02-11T14:38:28;97045.69;;;6.46;28.23
71621;BME280;59471;42.254;23.102;2023-02-11T14:41:23;97052.78;;;6.44;29.14
71621;BME280;59471;42.254;23.102;2023-02-11T14:43:59;97044.06;;;6.34;30.98
71621;BME280;59471;42.254;23.102;2023-02-11T14:46:29;97049.28;;;6.22;29.47
71621;BME280;59471;42.254;23.102;2023-02-11T14:48:59;97052.34;;;6.05;29.53
71621;BME280;59471;42.254;23.102;2023-02-11T14:51:28;97041.94;;;6.28;30.16
71621;BME280;59471;42.254;23.102;2023-02-11T14:54:15;97046.31;;;6.27;28.91
71621;BME280;59471;42.254;23.102;2023-02-11T14:56:43;97044.56;;;6.16;29.42
71621;BME280;59471;42.254;23.102;2023-02-11T14:59:21;97047.28;;;6.15;29.14
71621;BME280;59471;42.254;23.102;2023-02-11T15:01:52;97046.44;;;5.92;29.90
71621;BME280;59471;42.254;23.102;2023-02-11T15:04:40;97037.91;;;5.56;29.50
71621;BME280;59471;42.254;23.102;2023-02-11T15:07:09;97041.28;;;5.11;29.69
71621;BME280;59471;42.254;23.102;2023-02-11T15:09:40;97032.03;;;5.07;30.38
71621;BME280;59471;42.254;23.102;2023-02-11T15:12:20;97038.03;;;4.97;30.06
71621;BME280;59471;42.254;23.102;2023-02-11T15:14:50;97039.88;;;4.83;30.61
71621;BME280;59471;42.254;23.102;2023-02-11T15:17:21;97035.06;;;4.66;30.51
71621;BME280;59471;42.254;23.102;2023-02-11T15:19:52;97038.84;;;4.62;30.58
71621;BME280;59471;42.254;23.102;2023-02-11T15:22:22;97031.78;;;4.64;30.68
71621;BME280;59471;42.254;23.102;2023-02-11T15:25:22;97037.66;;;4.66;30.91
71621;BME280;59471;42.254;23.102;2023-02-11T15:27:50;97044.84;;;4.62;32.00
71621;BME280;59471;42.254;23.102;2023-02-11T15:32:49;97034.19;;;4.30;33.17
71621;BME280;59471;42.254;23.102;2023-02-11T15:35:30;97035.13;;;4.29;32.78
71621;BME280;59471;42.254;23.102;2023-02-11T15:37:59;97040.53;;;3.89;34.79
71621;BME280;59471;42.254;23.102;2023-02-11T15:40:29;97038.28;;;3.72;35.48
71621;BME280;59471;42.254;23.102;2023-02-11T15:43:00;97044.06;;;3.37;36.22
71621;BME280;59471;42.254;23.102;2023-02-11T15:45:28;97035.66;;;2.95;37.45
71621;BME280;59471;42.254;23.102;2023-02-11T15:48:04;97038.22;;;2.83;38.68
71621;BME280;59471;42.254;23.102;2023-02-11T15:50:34;97028.72;;;2.56;39.23
71621;BME280;59471;42.254;23.102;2023-02-11T15:55:49;97029.56;;;1.88;40.44
71621;BME280;59471;42.254;23.102;2023-02-11T15:58:17;97036.78;;;1.69;42.80
71621;BME280;59471;42.254;23.102;2023-02-11T16:00:48;97020.91;;;1.32;41.76
71621;BME280;59471;42.254;23.102;2023-02-11T16:03:26;97025.84;;;1.06;42.49